createdAt,value
2018-06-17T00:00:57.628Z,99.90
2018-06-17T00:03:26.109Z,99.90
2018-06-17T00:05:54.548Z,99.90
2018-06-17T00:08:22.993Z,99.90
2018-06-17T00:10:51.407Z,99.90
2018-06-17T00:13:19.820Z,99.90
2018-06-17T00:15:48.235Z,99.90
2018-06-17T00:18:16.551Z,99.90
2018-06-17T00:20:45.179Z,99.90
2018-06-17T00:23:13.709Z,99.90
2018-06-17T00:25:42.172Z,99.90
2018-06-17T00:28:10.688Z,99.90
2018-06-17T00:30:39.220Z,99.90
2018-06-17T00:33:07.821Z,99.90
2018-06-17T00:35:36.509Z,99.90
2018-06-17T00:38:05.572Z,99.90
2018-06-17T00:40:34.466Z,99.90
2018-06-17T00:43:03.248Z,99.90
2018-06-17T00:45:31.715Z,99.90
2018-06-17T00:48:00.176Z,99.90
2018-06-17T00:50:28.680Z,99.90
2018-06-17T00:52:57.204Z,99.90
2018-06-17T00:55:25.832Z,99.90
2018-06-17T01:00:23.550Z,99.90
2018-06-17T01:02:52.055Z,99.90
2018-06-17T01:05:20.500Z,99.90
2018-06-17T01:07:48.884Z,99.90
2018-06-17T01:10:17.332Z,99.90
2018-06-17T01:12:45.734Z,99.90
2018-06-17T01:15:14.286Z,99.90
2018-06-17T01:17:42.702Z,99.90
2018-06-17T01:20:11.288Z,99.90
2018-06-17T01:22:39.873Z,99.90
2018-06-17T01:25:08.519Z,99.90
2018-06-17T01:27:37.012Z,99.90
2018-06-17T01:30:05.821Z,99.90
2018-06-17T01:32:34.365Z,99.90
2018-06-17T01:35:02.940Z,99.90
2018-06-17T01:37:31.378Z,99.90
2018-06-17T01:40:00.003Z,99.90
2018-06-17T01:42:28.479Z,99.90
2018-06-17T01:44:56.956Z,99.90
2018-06-17T01:47:25.423Z,99.90
2018-06-17T01:49:53.858Z,99.90
2018-06-17T01:52:22.305Z,99.90
2018-06-17T01:54:50.673Z,99.90
2018-06-17T01:57:19.119Z,99.90
2018-06-17T01:59:47.592Z,99.90
2018-06-17T02:02:16.020Z,99.90
2018-06-17T02:04:49.819Z,99.90
2018-06-17T02:07:23.578Z,99.90
2018-06-17T02:09:57.471Z,99.90
2018-06-17T02:12:25.996Z,99.90
2018-06-17T02:14:55.907Z,99.90
2018-06-17T02:17:25.211Z,99.90
2018-06-17T02:19:54.312Z,99.90
2018-06-17T02:22:22.912Z,99.90
2018-06-17T02:24:51.379Z,99.90
2018-06-17T02:27:20.048Z,99.90
2018-06-17T02:29:48.479Z,99.90
2018-06-17T02:32:16.938Z,99.90
2018-06-17T02:34:45.340Z,99.90
2018-06-17T02:37:13.786Z,99.90
2018-06-17T02:39:42.318Z,99.90
2018-06-17T02:42:11.021Z,99.90
2018-06-17T02:44:39.608Z,99.90
2018-06-17T02:47:13.491Z,99.90
2018-06-17T02:49:44.206Z,99.90
2018-06-17T02:52:17.961Z,99.90
2018-06-17T02:54:47.216Z,99.90
2018-06-17T02:57:16.885Z,99.90
2018-06-17T02:59:45.800Z,99.90
2018-06-17T03:02:14.750Z,99.90
2018-06-17T03:04:43.202Z,99.90
2018-06-17T03:07:11.652Z,99.90
2018-06-17T03:09:40.123Z,99.90
2018-06-17T03:12:08.734Z,99.90
2018-06-17T03:14:37.207Z,99.90
2018-06-17T03:17:05.903Z,99.90
2018-06-17T03:19:34.547Z,99.90
2018-06-17T03:22:03.276Z,99.90
2018-06-17T03:24:37.065Z,99.90
2018-06-17T03:27:11.151Z,99.90
2018-06-17T03:29:44.840Z,99.90
2018-06-17T03:32:18.753Z,99.90
2018-06-17T03:34:51.368Z,99.90
2018-06-17T03:37:19.800Z,99.90
2018-06-17T03:39:48.247Z,99.90
2018-06-17T03:42:16.615Z,99.90
2018-06-17T03:44:45.115Z,99.90
2018-06-17T03:47:13.544Z,99.90
2018-06-17T03:49:42.074Z,99.90
2018-06-17T03:52:12.251Z,99.90
2018-06-17T03:54:40.887Z,99.90
2018-06-17T03:57:09.445Z,99.90
2018-06-17T03:59:38.081Z,99.90
2018-06-17T04:02:06.782Z,99.90
2018-06-17T04:04:41.045Z,99.90
2018-06-17T04:07:09.536Z,99.90
2018-06-17T04:09:37.995Z,99.90
2018-06-17T04:12:06.612Z,99.90
2018-06-17T04:14:35.920Z,99.90
2018-06-17T04:17:10.438Z,99.90
2018-06-17T04:19:38.944Z,99.90
2018-06-17T04:22:07.529Z,99.90
2018-06-17T04:24:36.108Z,99.90
2018-06-17T04:27:04.757Z,99.90
2018-06-17T04:29:33.200Z,99.90
2018-06-17T04:32:01.641Z,99.90
2018-06-17T04:34:30.217Z,99.90
2018-06-17T04:36:58.811Z,99.90
2018-06-17T04:39:27.301Z,99.90
2018-06-17T04:41:55.683Z,99.90
2018-06-17T04:44:24.120Z,99.90
2018-06-17T04:46:52.572Z,99.90
2018-06-17T04:49:20.941Z,99.90
2018-06-17T04:51:49.400Z,99.90
2018-06-17T04:54:17.758Z,99.90
2018-06-17T04:56:46.132Z,99.90
2018-06-17T04:59:14.507Z,99.90
2018-06-17T05:01:42.944Z,99.90
2018-06-17T05:04:11.432Z,99.90
2018-06-17T05:06:39.852Z,99.90
2018-06-17T05:09:09.017Z,99.90
2018-06-17T05:11:37.471Z,99.90
2018-06-17T05:14:06.287Z,99.90
2018-06-17T05:16:34.865Z,99.90
2018-06-17T05:19:03.391Z,99.90
2018-06-17T05:21:31.951Z,99.90
2018-06-17T05:24:00.391Z,99.90
2018-06-17T05:26:28.924Z,99.90
2018-06-17T05:28:57.428Z,99.90
2018-06-17T05:31:25.933Z,99.90
2018-06-17T05:33:54.504Z,99.90
2018-06-17T05:36:22.871Z,99.90
2018-06-17T05:38:51.286Z,99.90
2018-06-17T05:41:19.770Z,99.90
2018-06-17T05:43:48.224Z,99.90
2018-06-17T05:46:16.611Z,99.90
2018-06-17T05:48:45.120Z,99.90
2018-06-17T05:51:13.636Z,99.90
2018-06-17T05:56:10.478Z,99.90
2018-06-17T05:58:38.995Z,99.90
2018-06-17T06:01:07.593Z,99.90
2018-06-17T06:06:04.105Z,99.90
2018-06-17T06:08:32.500Z,99.90
2018-06-17T06:11:00.940Z,99.90
2018-06-17T06:13:29.389Z,99.90
2018-06-17T06:15:57.783Z,99.90
2018-06-17T06:18:26.172Z,99.90
2018-06-17T06:20:54.656Z,99.90
2018-06-17T06:23:23.071Z,99.90
2018-06-17T06:25:51.532Z,99.90
2018-06-17T06:28:19.987Z,99.90
2018-06-17T06:30:48.423Z,99.90
2018-06-17T06:33:16.906Z,99.90
2018-06-17T06:35:45.340Z,99.90
2018-06-17T06:38:13.768Z,99.90
2018-06-17T06:40:42.236Z,99.90
2018-06-17T06:43:10.789Z,99.90
2018-06-17T06:45:39.319Z,99.90
2018-06-17T06:48:07.961Z,99.90
2018-06-17T06:50:36.554Z,99.90
2018-06-17T06:53:05.169Z,99.90
2018-06-17T06:55:33.700Z,99.90
2018-06-17T06:58:02.113Z,99.90
2018-06-17T07:00:30.528Z,99.90
2018-06-17T07:03:10.367Z,99.90
2018-06-17T07:05:50.285Z,99.90
2018-06-17T07:08:30.005Z,99.90
2018-06-17T07:10:58.520Z,99.90
2018-06-17T07:13:27.020Z,99.90
2018-06-17T07:16:06.844Z,99.90
2018-06-17T07:18:37.799Z,99.90
2018-06-17T07:21:06.637Z,99.90
2018-06-17T07:23:35.083Z,99.90
2018-06-17T07:26:43.124Z,99.90
2018-06-17T07:29:24.131Z,99.90
2018-06-17T07:31:52.545Z,99.90
2018-06-17T07:34:20.983Z,99.90
2018-06-17T07:36:49.412Z,99.90
2018-06-17T07:40:31.743Z,99.90
2018-06-17T07:43:00.781Z,99.90
2018-06-17T07:45:29.160Z,99.90
2018-06-17T07:47:57.744Z,99.90
2018-06-17T07:50:37.648Z,99.90
2018-06-17T07:53:19.510Z,99.90
2018-06-17T07:55:48.428Z,99.90
2018-06-17T07:58:17.228Z,99.90
2018-06-17T08:00:45.591Z,99.90
2018-06-17T08:03:14.605Z,99.90
2018-06-17T08:05:43.734Z,99.90
2018-06-17T08:08:12.415Z,99.90
2018-06-17T08:10:41.162Z,98.40
2018-06-17T08:13:11.056Z,96.70
2018-06-17T08:15:39.992Z,94.70
2018-06-17T08:18:08.584Z,95.10
2018-06-17T08:20:37.416Z,92.40
2018-06-17T08:23:06.300Z,88.60
2018-06-17T08:25:35.642Z,91.10
2018-06-17T08:28:04.627Z,91.30
2018-06-17T08:30:33.167Z,91.90
2018-06-17T08:33:01.629Z,94.10
2018-06-17T08:35:30.129Z,94.60
2018-06-17T08:37:58.684Z,98.60
2018-06-17T08:40:27.276Z,94.60
2018-06-17T08:42:55.719Z,84.40
2018-06-17T08:45:24.212Z,73.40
2018-06-17T08:47:52.608Z,76.90
2018-06-17T08:50:21.162Z,75.80
2018-06-17T08:52:49.614Z,75.40
2018-06-17T08:55:17.999Z,80.20
2018-06-17T08:57:46.420Z,81.00
2018-06-17T09:00:15.104Z,80.70
2018-06-17T09:02:44.558Z,83.00
2018-06-17T09:05:13.132Z,86.20
2018-06-17T09:07:42.932Z,78.40
2018-06-17T09:10:11.603Z,81.10
2018-06-17T09:12:40.347Z,86.30
2018-06-17T09:15:09.302Z,86.10
2018-06-17T09:17:38.296Z,84.40
2018-06-17T09:20:07.202Z,87.40
2018-06-17T09:22:36.514Z,84.20
2018-06-17T09:25:05.633Z,84.40
2018-06-17T09:27:34.529Z,86.20
2018-06-17T09:30:03.016Z,81.20
2018-06-17T09:32:36.459Z,81.80
2018-06-17T09:35:05.933Z,80.90
2018-06-17T09:37:34.553Z,82.70
2018-06-17T09:40:03.624Z,81.60
2018-06-17T09:42:32.116Z,86.40
2018-06-17T09:45:00.534Z,80.80
2018-06-17T09:47:28.953Z,80.40
2018-06-17T09:49:57.540Z,81.30
2018-06-17T09:52:25.941Z,83.30
2018-06-17T09:54:54.827Z,85.40
2018-06-17T09:57:23.451Z,84.70
2018-06-17T09:59:51.972Z,78.20
2018-06-17T10:02:20.397Z,75.80
2018-06-17T10:04:48.848Z,80.50
2018-06-17T10:07:18.883Z,86.30
2018-06-17T10:10:21.507Z,82.00
2018-06-17T10:12:50.115Z,82.90
2018-06-17T10:15:18.926Z,84.80
2018-06-17T10:17:47.860Z,75.80
2018-06-17T10:20:17.783Z,77.70
2018-06-17T10:22:47.097Z,75.10
2018-06-17T10:25:17.067Z,84.60
2018-06-17T10:27:45.828Z,87.00
2018-06-17T10:30:14.448Z,89.00
2018-06-17T10:32:43.651Z,89.70
2018-06-17T10:35:12.757Z,92.10
2018-06-17T10:37:41.503Z,92.20
2018-06-17T10:40:10.436Z,87.40
2018-06-17T10:42:41.427Z,84.10
2018-06-17T10:45:10.956Z,86.80
2018-06-17T10:47:40.811Z,91.70
2018-06-17T10:50:10.309Z,90.90
2018-06-17T10:52:41.940Z,86.70
2018-06-17T10:55:13.422Z,90.80
2018-06-17T10:57:42.702Z,90.90
2018-06-17T11:00:11.813Z,90.00
2018-06-17T11:02:41.589Z,92.40
2018-06-17T11:05:11.544Z,82.90
2018-06-17T11:07:40.480Z,85.50
2018-06-17T11:10:09.650Z,81.10
2018-06-17T11:12:38.839Z,81.80
2018-06-17T11:17:39.506Z,75.60
2018-06-17T11:20:08.985Z,78.20
2018-06-17T11:22:38.255Z,79.00
2018-06-17T11:25:07.642Z,78.80
2018-06-17T11:27:37.100Z,76.20
2018-06-17T11:30:06.764Z,75.70
2018-06-17T11:32:36.906Z,82.30
2018-06-17T11:35:06.181Z,86.90
2018-06-17T11:37:34.852Z,88.90
2018-06-17T11:40:03.252Z,90.10
2018-06-17T11:42:31.707Z,92.20
2018-06-17T11:45:00.255Z,94.80
2018-06-17T11:47:32.086Z,97.00
2018-06-17T11:50:00.698Z,98.80
2018-06-17T11:52:29.836Z,99.40
2018-06-17T11:55:00.195Z,99.70
2018-06-17T11:57:30.202Z,99.90
2018-06-17T11:59:59.477Z,99.90
2018-06-17T12:02:29.504Z,99.90
2018-06-17T12:05:00.046Z,99.90
2018-06-17T12:07:29.263Z,99.90
2018-06-17T12:09:58.828Z,99.90
2018-06-17T12:12:28.031Z,99.90
2018-06-17T12:14:59.397Z,99.90
2018-06-17T12:17:30.053Z,99.90
2018-06-17T12:20:00.794Z,99.90
2018-06-17T12:22:30.938Z,99.90
2018-06-17T12:24:59.980Z,99.90
2018-06-17T12:27:30.066Z,99.90
2018-06-17T12:30:00.543Z,99.90
2018-06-17T12:32:30.189Z,99.90
2018-06-17T12:35:01.031Z,99.90
2018-06-17T12:37:30.171Z,99.90
2018-06-17T12:40:01.375Z,99.90
2018-06-17T12:42:30.992Z,99.90
2018-06-17T12:45:00.335Z,99.90
2018-06-17T12:47:30.090Z,99.90
2018-06-17T12:50:01.693Z,99.90
2018-06-17T12:52:30.364Z,99.90
2018-06-17T12:55:00.196Z,99.90
2018-06-17T12:57:29.388Z,99.90
2018-06-17T12:59:59.378Z,97.50
2018-06-17T13:04:57.841Z,97.50
2018-06-17T13:07:26.769Z,97.00
2018-06-17T13:09:56.370Z,96.50
2018-06-17T13:12:25.833Z,95.00
2018-06-17T13:14:56.517Z,93.50
2018-06-17T13:17:25.689Z,93.50
2018-06-17T13:19:54.891Z,95.30
2018-06-17T13:22:24.136Z,91.60
2018-06-17T13:25:00.017Z,93.30
2018-06-17T13:27:28.683Z,92.30
2018-06-17T13:29:57.564Z,90.20
2018-06-17T13:32:26.251Z,92.50
2018-06-17T13:34:55.258Z,93.50
2018-06-17T13:37:24.311Z,94.70
2018-06-17T13:39:53.333Z,93.90
2018-06-17T13:42:22.732Z,95.60
2018-06-17T13:44:52.265Z,95.00
2018-06-17T13:47:21.279Z,96.00
2018-06-17T13:49:50.984Z,97.00
2018-06-17T13:52:21.634Z,98.10
2018-06-17T13:54:51.176Z,98.20
2018-06-17T13:57:22.337Z,99.50
2018-06-17T13:59:51.074Z,99.30
2018-06-17T14:02:21.681Z,99.30
2018-06-17T14:04:51.636Z,98.10
2018-06-17T14:07:22.323Z,99.40
2018-06-17T14:09:51.967Z,99.60
2018-06-17T14:17:21.178Z,96.40
2018-06-17T14:19:51.499Z,97.90
2018-06-17T14:22:22.727Z,96.70
2018-06-17T14:24:54.425Z,97.60
2018-06-17T14:27:24.804Z,97.00
2018-06-17T14:29:53.509Z,96.70
2018-06-17T14:32:22.316Z,97.30
2018-06-17T14:34:51.987Z,97.50
2018-06-17T14:37:21.951Z,97.20
2018-06-17T14:39:52.683Z,97.80
2018-06-17T14:42:28.239Z,97.50
2018-06-17T14:45:02.232Z,97.90
2018-06-17T14:47:39.556Z,99.20
2018-06-17T14:50:17.191Z,99.70
2018-06-17T14:53:07.750Z,98.60
2018-06-17T14:55:39.249Z,99.30
2018-06-17T14:58:10.848Z,99.70
2018-06-17T15:00:41.554Z,99.60
2018-06-17T15:03:11.408Z,99.20
2018-06-17T15:05:42.208Z,99.90
2018-06-17T15:08:16.641Z,99.20
2018-06-17T15:10:50.739Z,99.90
2018-06-17T15:13:20.586Z,99.90
2018-06-17T15:15:51.806Z,99.90
2018-06-17T15:18:21.589Z,99.90
2018-06-17T15:20:50.907Z,99.90
2018-06-17T15:23:21.833Z,99.30
2018-06-17T15:25:50.385Z,99.40
2018-06-17T15:28:19.019Z,99.30
2018-06-17T15:30:47.540Z,99.40
2018-06-17T15:33:21.533Z,99.90
2018-06-17T15:35:55.387Z,99.90
2018-06-17T15:38:29.128Z,99.90
2018-06-17T15:41:10.912Z,99.80
2018-06-17T15:43:39.562Z,99.70
2018-06-17T15:46:08.831Z,99.90
2018-06-17T15:48:38.825Z,99.90
2018-06-17T15:51:07.845Z,99.90
2018-06-17T15:53:37.308Z,99.50
2018-06-17T15:56:06.537Z,99.90
2018-06-17T15:58:35.463Z,99.90
2018-06-17T16:01:04.170Z,99.90
2018-06-17T16:03:38.882Z,99.90
2018-06-17T16:06:07.965Z,99.10
2018-06-17T16:08:36.989Z,99.90
2018-06-17T16:11:06.236Z,99.90
2018-06-17T16:13:40.177Z,99.90
2018-06-17T16:16:14.471Z,99.90
2018-06-17T16:18:48.592Z,99.90
2018-06-17T16:21:17.116Z,99.90
2018-06-17T16:23:45.657Z,99.90
2018-06-17T16:26:14.265Z,99.90
2018-06-17T16:28:43.016Z,99.90
2018-06-17T16:31:12.095Z,99.90
2018-06-17T16:33:40.873Z,99.90
2018-06-17T16:36:09.695Z,99.90
2018-06-17T16:38:41.693Z,99.90
2018-06-17T16:41:10.862Z,99.90
2018-06-17T16:43:39.640Z,99.90
2018-06-17T16:46:08.861Z,99.90
2018-06-17T16:48:37.912Z,99.90
2018-06-17T16:51:12.078Z,99.90
2018-06-17T16:53:46.084Z,99.90
2018-06-17T16:56:20.661Z,99.90
2018-06-17T16:59:07.014Z,99.90
2018-06-17T17:01:37.344Z,99.90
2018-06-17T17:04:06.666Z,99.10
2018-06-17T17:06:37.650Z,99.30
2018-06-17T17:09:08.984Z,99.10
2018-06-17T17:11:39.174Z,98.40
2018-06-17T17:14:08.168Z,98.10
2018-06-17T17:16:37.340Z,97.90
2018-06-17T17:19:06.895Z,98.70
2018-06-17T17:21:40.081Z,98.60
2018-06-17T17:24:09.359Z,99.30
2018-06-17T17:26:38.345Z,98.50
2018-06-17T17:29:08.103Z,99.40
2018-06-17T17:31:42.560Z,99.90
2018-06-17T17:34:16.560Z,99.90
2018-06-17T17:36:51.053Z,99.90
2018-06-17T17:39:24.934Z,99.90
2018-06-17T17:41:53.295Z,99.90
2018-06-17T17:44:22.894Z,99.90
2018-06-17T17:46:56.719Z,99.90
2018-06-17T17:49:25.200Z,99.90
2018-06-17T17:51:53.560Z,99.90
2018-06-17T17:54:22.043Z,99.90
2018-06-17T17:56:50.406Z,99.90
2018-06-17T17:59:18.857Z,99.90
2018-06-17T18:01:48.304Z,99.90
2018-06-17T18:04:16.864Z,99.90
2018-06-17T18:06:45.603Z,99.90
2018-06-17T18:09:14.431Z,99.90
2018-06-17T18:11:44.514Z,99.90
2018-06-17T18:14:13.529Z,99.90
2018-06-17T18:16:42.380Z,99.90
2018-06-17T18:19:11.203Z,99.90
2018-06-17T18:21:40.017Z,99.90
2018-06-17T18:24:09.101Z,99.90
2018-06-17T18:26:43.194Z,99.90
2018-06-17T18:29:17.136Z,99.90
2018-06-17T18:31:51.198Z,99.90
2018-06-17T18:34:25.008Z,99.90
2018-06-17T18:36:53.447Z,99.90
2018-06-17T18:39:21.888Z,99.90
2018-06-17T18:41:50.381Z,99.90
2018-06-17T18:44:18.809Z,99.90
2018-06-17T18:46:47.567Z,99.90
2018-06-17T18:49:17.224Z,99.90
2018-06-17T18:54:14.332Z,99.90
2018-06-17T18:56:43.034Z,99.90
2018-06-17T18:59:11.622Z,99.90
2018-06-17T19:01:40.549Z,99.90
2018-06-17T19:04:10.324Z,99.90
2018-06-17T19:06:39.287Z,99.90
2018-06-17T19:09:15.242Z,99.90
2018-06-17T19:11:49.240Z,99.90
2018-06-17T19:14:23.170Z,99.90
2018-06-17T19:16:57.011Z,99.90
2018-06-17T19:19:26.000Z,99.90
2018-06-17T19:21:54.489Z,99.90
2018-06-17T19:24:23.046Z,99.90
2018-06-17T19:26:51.507Z,99.90
2018-06-17T19:29:19.910Z,99.90
2018-06-17T19:31:48.780Z,99.90
2018-06-17T19:34:17.275Z,99.90
2018-06-17T19:36:46.087Z,99.90
2018-06-17T19:39:16.221Z,99.90
2018-06-17T19:41:45.910Z,99.90
2018-06-17T19:44:15.099Z,99.90
2018-06-17T19:46:43.951Z,99.90
2018-06-17T19:49:12.702Z,99.90
2018-06-17T19:51:46.575Z,99.90
2018-06-17T19:54:20.764Z,99.90
2018-06-17T19:56:54.567Z,99.90
2018-06-17T20:00:32.958Z,99.90
2018-06-17T20:03:03.087Z,99.90
2018-06-17T20:05:31.592Z,99.90
2018-06-17T20:08:00.076Z,99.90
2018-06-17T20:10:28.707Z,99.90
2018-06-17T20:12:57.451Z,99.90
2018-06-17T20:15:32.475Z,99.90
2018-06-17T20:18:01.875Z,99.90
2018-06-17T20:20:30.976Z,99.90
2018-06-17T20:22:59.375Z,99.90
2018-06-17T20:25:28.853Z,99.90
2018-06-17T20:28:01.900Z,99.90
2018-06-17T20:30:30.496Z,99.90
2018-06-17T20:33:04.356Z,99.90
2018-06-17T20:35:38.492Z,99.90
2018-06-17T20:38:12.659Z,99.90
2018-06-17T20:40:46.660Z,99.90
2018-06-17T20:43:20.379Z,99.90
2018-06-17T20:45:48.988Z,99.90
2018-06-17T20:48:17.604Z,99.90
2018-06-17T20:50:46.272Z,99.90
2018-06-17T20:53:16.104Z,99.90
2018-06-17T20:55:44.704Z,99.90
2018-06-17T20:58:14.376Z,99.90
2018-06-17T21:00:43.567Z,99.90
2018-06-17T21:03:12.297Z,99.90
2018-06-17T21:05:41.048Z,99.90
2018-06-17T21:08:09.883Z,99.90
2018-06-17T21:10:38.700Z,99.90
2018-06-17T21:15:36.337Z,99.90
2018-06-17T21:18:05.224Z,99.90
2018-06-17T21:20:39.409Z,99.90
2018-06-17T21:23:16.448Z,99.90
2018-06-17T21:25:50.320Z,99.90
2018-06-17T21:28:18.967Z,99.90
2018-06-17T21:30:47.794Z,99.90
2018-06-17T21:33:16.275Z,99.90
2018-06-17T21:35:45.248Z,99.90
2018-06-17T21:38:13.787Z,99.90
2018-06-17T21:40:42.464Z,99.90
2018-06-17T21:43:11.136Z,99.90
2018-06-17T21:45:40.375Z,99.90
2018-06-17T21:48:09.168Z,99.90
2018-06-17T21:50:38.057Z,99.90
2018-06-17T21:53:06.840Z,99.90
2018-06-17T21:55:36.644Z,99.90
2018-06-17T21:58:05.794Z,99.90
2018-06-17T22:00:34.648Z,99.90
2018-06-17T22:03:03.610Z,99.90
2018-06-17T22:05:32.117Z,99.90
2018-06-17T22:08:05.819Z,99.90
2018-06-17T22:10:39.600Z,99.90
2018-06-17T22:13:08.486Z,99.90
2018-06-17T22:15:42.419Z,99.90
2018-06-17T22:18:11.268Z,99.90
2018-06-17T22:20:40.025Z,99.90
2018-06-17T22:23:08.775Z,99.90
2018-06-17T22:25:37.882Z,99.90
2018-06-17T22:28:06.971Z,99.90
2018-06-17T22:30:36.512Z,99.90
2018-06-17T22:33:05.818Z,99.90
2018-06-17T22:38:02.637Z,99.90
2018-06-17T22:40:31.263Z,99.90
2018-06-17T22:42:59.851Z,99.90
2018-06-17T22:45:28.279Z,99.90
2018-06-17T22:47:57.772Z,99.90
2018-06-17T22:50:26.267Z,99.90
2018-06-17T22:53:06.115Z,99.90
2018-06-17T22:55:35.160Z,99.90
2018-06-17T22:58:09.172Z,99.90
2018-06-17T23:00:43.155Z,99.90
2018-06-17T23:03:17.140Z,99.90
2018-06-17T23:05:51.012Z,99.90
2018-06-17T23:08:24.756Z,99.90
2018-06-17T23:10:53.192Z,99.90
2018-06-17T23:13:21.620Z,99.90
2018-06-17T23:15:50.024Z,99.90
2018-06-17T23:18:18.442Z,99.90
2018-06-17T23:20:46.911Z,99.90
2018-06-17T23:23:15.503Z,99.90
2018-06-17T23:25:44.122Z,99.90
2018-06-17T23:28:12.803Z,99.90
2018-06-17T23:30:41.471Z,99.90
2018-06-17T23:33:09.996Z,99.90
2018-06-17T23:35:38.816Z,99.90
2018-06-17T23:38:07.815Z,99.90
2018-06-17T23:40:36.812Z,99.90
2018-06-17T23:43:05.639Z,99.90
2018-06-17T23:45:34.291Z,99.90
2018-06-17T23:48:08.136Z,99.90
2018-06-17T23:50:42.065Z,99.90
2018-06-17T23:53:15.947Z,99.90
2018-06-17T23:55:49.878Z,99.90
2018-06-17T23:58:18.235Z,99.90
